Michy Castagne

Recruteur en chef - Club Brugge
13 Avr 2028
Jeudi
Processus

Personnalité

Adaptabilité (3) Ambition (6) Controverse (5) Loyauté (10) Pression (12) Professionnalisme (10) Sportivité (11) Tempérament (17)

Profil

Style d'entraînement Démocratique
Diplôme Continental Pro
Détermination 10
Gestion des joueurs 10
Motivation 15
Discipline 11
Satisfaction professionnelle
100%
Fatigue
0%
Rôle Recruteur en chef
Salaire 117.3K p/s
Contrat 14.03.2029

Performance

Comportement Bon
Efficacité de l'entraînement
50%
Développement des joueurs
50%
Prévention des blessures
35%
Mise en place tactique
45%

Suivi en cours

167
Joueur Club Statut Capacité Confiance Observé Dernière observation Dernier vote
Vitor Roque Palmeiras Actif 152 / 152 40% 1 31.01.2028 -
Igor Paixão Olympique de Marseille Actif 153 / 149 40% 1 31.01.2028 -
Jonathan Dubasin Osasuna Actif 151 / 143 40% 1 31.01.2028 -
Marcelo Saracchi Houston Dynamo Actif 129 / 128 40% 2 25.01.2028 -
Marcos Antonio Sport Recife Actif 142 / 140 40% 1 25.01.2028 -
Agustín Giay Palmeiras Actif 135 / 134 40% 1 25.01.2028 -
Jarne Steuckers Racing Genk Rapport prêt 122 / 122 86% 1 17.01.2028 Approuver
Rafiu Durosinmi Racing Genk Rapport prêt 131 / 134 86% 1 01.01.2028 Approuver
Kimito Nono Kashima Antlers Perdu 133 / 139 40% 1 01.01.2028 -
Samuel Lino Flamengo Actif 144 / 146 40% 1 01.01.2028 -
Telasco Segovia Inter Miami CF Actif 130 / 128 40% 2 31.08.2027 -
Nicolás Fernández Mercau New York City Actif 134 / 136 40% 1 31.08.2027 -
Facundo Torres Austin FC Actif 139 / 144 40% 2 30.08.2027 -
Ola Brynhildsen Bodo/Glimt Actif 129 / 118 40% 1 30.08.2027 -
Paxten Aaronson Colorado Rapids Actif 135 / 127 40% 1 29.08.2027 -
Thiago Almada River Plate Actif 150 / 147 40% 1 27.08.2027 -
André Luiz Sporting Kansas City Actif 133 / 125 40% 1 27.08.2027 -
Alexander Aravena Portland Timbers Actif 128 / 129 40% 1 27.08.2027 -
Gabriel Pirani San Diego Football Club Actif 137 / 136 40% 1 26.08.2027 -
Pedro de la Vega Seattle Sounders Actif 143 / 131 40% 1 26.08.2027 -
Serginho Al Wasl Actif 138 / 133 40% 1 25.08.2027 -
Elias Achouri San Diego Football Club Actif 132 / 128 40% 1 24.08.2027 -
Denis Genreau Melbourne Victory Actif 135 / 120 40% 1 23.08.2027 -
Arthur Cabral Botafogo Actif 133 / 123 40% 1 23.08.2027 -
Yarden Shua Beitar Jerusalem Actif 140 / 144 40% 2 21.08.2027 -
Facundo Mura Inter Miami CF Actif 133 / 132 40% 1 21.08.2027 -
Jesus Ferreira Seattle Sounders Actif 135 / 139 40% 1 21.08.2027 -
Edmund Baidoo Borussia Dortmund Actif 130 / 129 40% 1 21.08.2027 -
Armand Laurienté Sassuolo Actif 139 / 143 40% 3 19.08.2027 -
Jonathan David Juventus Actif 157 / 152 40% 2 19.08.2027 -
Manu Koné AS Roma Actif 171 / 165 40% 1 19.08.2027 -
Antonio Vergara Napoli Actif 144 / 140 40% 1 18.08.2027 -
Andrea Colpani Monza Actif 141 / 136 40% 1 18.08.2027 -
Rodrigo Mora AS Roma Actif 139 / 142 40% 1 18.08.2027 -
Keinan Davis Udinese Actif 135 / 139 40% 2 17.08.2027 -
Assane Diao Como Actif 153 / 157 40% 1 17.08.2027 -
Luís Henrique Inter Actif 149 / 140 40% 1 17.08.2027 -
Sam Surridge Nashville SC Actif 133 / 129 40% 2 16.08.2027 -
Rasmus Højlund Napoli Actif 156 / 154 40% 1 16.08.2027 -
Francisco Conceição Juventus Actif 163 / 161 40% 1 14.08.2027 -
Nicolò Zaniolo Udinese Actif 149 / 151 40% 2 13.08.2027 -
Federico Dimarco Inter Actif 167 / 171 40% 1 13.08.2027 -
Jesús Vázquez Valencia Actif 138 / 135 40% 1 13.08.2027 -
Ilias Akhomach Villarreal Actif 146 / 148 40% 2 12.08.2027 -
Charles De Ketelaere Atalanta Actif 158 / 158 40% 2 12.08.2027 -
Kerem Aktürkoğlu Fenerbahce Actif 149 / 140 40% 1 11.08.2027 -
Rafael Leão Galatasaray Actif 165 / 162 40% 1 11.08.2027 -
Mohamed-Ali Cho Hull City Actif 141 / 141 40% 1 09.08.2027 -
Óscar Mingueza Crystal Palace Actif 152 / 148 40% 1 09.08.2027 -
Thiago Brentford Actif 151 / 147 40% 2 08.08.2027 -
Loïs Openda Juventus Actif 159 / 155 40% 2 08.08.2027 -
Julio Enciso Ipswich Town Actif 151 / 147 40% 1 08.08.2027 -
Joe Gelhardt Hull City Actif 135 / 135 40% 1 08.08.2027 -
Georginio Rutter Brighton Actif 151 / 149 40% 1 08.08.2027 -
Tommy Conway Middlesbrough Actif 132 / 135 40% 1 07.08.2027 -
Ethan Williams Peterborough United Actif 118 / 121 40% 2 05.08.2027 -
Ali Ahmed Norwich City Actif 131 / 133 40% 1 05.08.2027 -
Exequiel Palacios Ipswich Town Actif 163 / 166 40% 1 05.08.2027 -
Riley McGree Middlesbrough Actif 137 / 130 40% 1 04.08.2027 -
Léo Scienza Southampton Actif 143 / 137 40% 1 04.08.2027 -
Florentino Luís Ipswich Town Actif 147 / 144 40% 2 03.08.2027 -
Morgan Whittaker Middlesbrough Actif 138 / 134 40% 2 03.08.2027 -
Mats Wieffer Brighton Actif 154 / 153 40% 1 03.08.2027 -
Bongani Kekana SuperSport United Actif 139 / 142 40% 1 03.08.2027 -
Aaron Connolly Leyton Orient Actif 129 / 130 40% 1 03.08.2027 -
Yeremy Pino Crystal Palace Actif 156 / 157 40% 1 01.08.2027 -
Ronald Swansea City Actif 135 / 125 40% 1 01.08.2027 -
Bosun Lawal Stoke City Actif 129 / 131 40% 2 31.07.2027 -
Xaver Schlager Nottingham Forest Actif 156 / 155 40% 3 31.07.2027 -
Jimmy Dunne Queens Park Rangers Actif 134 / 124 40% 1 31.07.2027 -
Derensili Sanches Fernandes Huddersfield Town Actif 131 / 124 40% 4 30.07.2027 -
Jack Clarke Ipswich Town Actif 136 / 135 40% 1 30.07.2027 -
Sorba Thomas Stoke City Actif 137 / 134 40% 1 30.07.2027 -
Enrico Delprato Parma Actif 146 / 141 40% 1 28.07.2027 -
Marcus Edwards Burnley Actif 145 / 138 40% 1 27.07.2027 -
Welington Southampton Actif 134 / 136 40% 1 27.07.2027 -
Quilindschy Hartman Burnley Actif 148 / 143 40% 1 27.07.2027 -
Bobby Thomas Coventry City Actif 135 / 137 40% 1 27.07.2027 -
Ryan Sessegnon Fulham Actif 147 / 155 40% 1 26.07.2027 -
Max Johnston Derby County Actif 133 / 136 40% 1 26.07.2027 -
Jacob Greaves Ipswich Town Actif 141 / 144 40% 1 25.07.2027 -
Oliver Skipp Leicester City Actif 134 / 136 40% 1 25.07.2027 -
Pelle Mattsson Norwich City Actif 129 / 127 40% 5 22.07.2027 -
Lewis O'Brien Wrexham Actif 130 / 134 40% 4 22.07.2027 -
Teden Mengi Luton Town Actif 128 / 123 40% 3 22.07.2027 -
Eden De Bruyne KV Oostende Actif 139 / 138 40% 1 22.07.2027 -
Ross McCrorie Bristol City Actif 128 / 127 40% 1 22.07.2027 -
Jacques Ekomié Wrexham Actif 133 / 138 40% 1 21.07.2027 -
Abdelkahar Kadri KAA Gent Actif 131 / 127 40% 1 20.07.2027 -
Anis Mehmeti Ipswich Town Actif 134 / 138 40% 1 20.07.2027 -
Veljko Birmančević Ferencvaros Actif 139 / 146 40% 1 20.07.2027 -
Sidiki Chérif Coventry City Actif 130 / 129 40% 1 19.07.2027 -
Aune Heggebø West Bromwich Albion Actif 134 / 125 40% 1 19.07.2027 -
Luca Langoni Besiktas Actif 134 / 133 40% 1 19.07.2027 -
Chris Mepham West Bromwich Albion Actif 132 / 128 40% 3 17.07.2027 -
Alfie Doughty Millwall Actif 132 / 130 40% 5 15.07.2027 -
Samuele Birindelli Monza Actif 132 / 134 40% 4 15.07.2027 -
Andre Brooks Sheffield United Actif 133 / 127 40% 1 15.07.2027 -
Bae Jun-Ho Stoke City Actif 127 / 125 40% 1 15.07.2027 -
Max Cleworth Wrexham Actif 128 / 125 40% 1 15.07.2027 -
Luke McNally Bristol City Actif 132 / 132 40% 1 14.07.2027 -
Lewis Gibson Preston Actif 130 / 126 40% 1 14.07.2027 -
Ben Sheaf Wrexham Actif 135 / 132 40% 4 13.07.2027 -
Nicolas Madsen Queens Park Rangers Actif 136 / 129 40% 5 12.07.2027 -
Cameron Pring Bristol City Actif 129 / 131 40% 2 09.07.2027 -
Jay Stansfield Birmingham Actif 133 / 136 40% 2 09.07.2027 -
Charlie Hughes Hull City Actif 133 / 128 40% 2 09.07.2027 -
Samed Baždar Sint-Truiden Actif 126 / 122 40% 1 09.07.2027 -
Mattie Pollock Watford Actif 125 / 132 40% 3 08.07.2027 -
Adam Randell Bristol City Actif 131 / 127 40% 2 04.07.2027 -
Brooke Norton-Cuffy Genoa Actif 140 / 135 40% 1 03.07.2027 -
Adilson Malanda Middlesbrough Actif 130 / 132 40% 1 02.07.2027 -
Romano Floriani Mussolini Avellino Actif 130 / 129 40% 2 01.07.2027 -
Ismaël Baouf Cambuur Actif 118 / 121 40% 1 30.06.2027 -
Dany Mota Monza Actif 136 / 133 40% 3 28.06.2027 -
Atsuki Ito Bolton Wanderers Actif 129 / 124 40% 1 24.06.2027 -
Jason Knight Bristol City Actif 133 / 124 40% 2 23.06.2027 -
Lewis Travis Derby County Actif 126 / 128 40% 1 23.06.2027 Plus d'infos
Hamza Choudhury Leicester City Actif 127 / 129 40% 1 23.06.2027 -
Othmane Maamma Watford Actif 125 / 136 40% 1 23.06.2027 -
Alfie Gilchrist West Bromwich Albion Actif 130 / 135 40% 2 21.06.2027 -
Junior Tchamadeu Stoke City Actif 125 / 126 40% 1 21.06.2027 -
Thibaud Verlinden OH Leuven Actif 129 / 123 40% 2 20.06.2027 Plus d'infos
Filippo Ranocchia Palermo Actif 135 / 131 40% 2 20.06.2027 -
Shandre Campbell KV Kortrijk Actif 112 / 120 40% 1 18.06.2027 -
Idrissa Touré Monza Actif 138 / 128 40% 1 17.06.2027 -
Martín Ojeda Orlando City Actif 136 / 132 40% 1 14.06.2027 -
Cristian Shpendi Cesena Actif 135 / 126 40% 1 14.06.2027 -
Imrân Louza Watford Actif 133 / 129 40% 1 12.06.2027 -
Andrea Carboni Monza Actif 134 / 133 40% 1 09.06.2027 -
Aiham Ousou Charleroi Actif 134 / 124 40% 1 09.06.2027 -
Alessandro Bianco Modena Actif 130 / 138 40% 1 09.06.2027 -
Festy Ebosele Basaksehir Actif 132 / 129 40% 1 09.06.2027 -
Marcelo Ryan FC Tokyo Actif 134 / 126 40% 1 08.06.2027 -
Wagner Pina Trabzonspor Actif 130 / 125 40% 1 07.06.2027 -
Alessandro Sersanti Modena Actif 129 / 120 40% 1 07.06.2027 -
Mehdi Dorval Catanzaro Actif 131 / 130 40% 2 06.06.2027 -
Youssef Belammari Al Ahly Actif 128 / 118 40% 1 06.06.2027 -
Mohammed El Hankouri Standard Liege Actif 130 / 127 40% 3 04.06.2027 -
Tanguy Nianzou LOSC Lille Actif 136 / 133 40% 1 03.06.2027 -
Mohamed Ali Ben Romdhane Al Ahly Actif 133 / 126 40% 1 03.06.2027 -
Toby Januzaj KV Oostende Actif 133 / 129 40% 1 30.01.2027 -
Zakaria El Ouahdi Racing Genk Actif 130 / 122 40% 2 29.01.2027 -
Kwadwo Duah Ludogorets Actif 131 / 136 40% 1 29.01.2027 -
Sayfallah Ltaief Cracovia Actif 118 / 113 40% 1 27.01.2027 -
Ilias Sebaoui Sint-Truiden Actif 125 / 134 40% 1 27.01.2027 -
Luka Jović AEK Actif 139 / 141 40% 2 24.01.2027 -
Clayton Olympiacos Actif 133 / 137 40% 1 24.01.2027 -
Dramane Kamagaté USM Alger Actif 109 / 111 40% 1 24.01.2027 -
Erik Botheim Malmo FF Actif 134 / 127 40% 1 23.01.2027 -
Iwan Morgan Grimsby Town Actif 111 / 120 40% 1 23.01.2027 -
Ruben van Bommel PSV Actif 133 / 139 40% 1 22.01.2027 -
Ibrahim Karamoko Standard Liege Actif 119 / 119 40% 1 20.01.2027 -
Marlon Fossey Standard Liege Actif 123 / 131 40% 1 16.01.2027 -
Teboho Mokoena Crvena Zvezda Actif 138 / 125 40% 1 16.01.2027 -
Pape Diong Westerlo Actif 112 / 124 40% 1 15.01.2027 -
Maicon Levski Actif 130 / 134 40% 1 15.01.2027 -
Robert-Jan Vanwesemael Sint-Truiden Actif 119 / 126 40% 1 13.01.2027 -
James Maddison Tottenham Actif 157 / 154 40% 1 06.01.2027 -
Ryotaro Ito Sint-Truiden Actif 127 / 121 40% 1 06.01.2027 -
Lenn De Smet KV Kortrijk Actif 112 / 115 30% 1 / 1m 25.11.2026 -
Alain Gueï Zulte Waregem Actif 94 / 99 30% 1 / 1m 26.08.2026 -
Diego Luna Real Salt Lake Actif 124 / 136 40% 1 24.08.2026 -
Oualid Agougil Utrecht Actif 97 / 106 40% 1 10.08.2026 -
Evander FC Cincinnati Actif 138 / 143 40% 1 10.08.2026 -
Junior Mwanga Le Havre AC Actif 126 / 131 40% 1 01.08.2026 -
Ben Chilwell RC Strasbourg Actif 142 / 146 40% 1 01.08.2026 -